Time;durP1;ratioP1;P1;durP2;ratioP2;P2;SDS_P1;SDS_P2;PMS_P1;PMS_P2;Temp;Humidity;BMP_temperature;BMP_pressure;BME280_temperature;BME280_humidity;BME280_pressure;Samples;Min_cycle;Max_cycle;Signal;HPM_P1;HPM_P2
2022/04/20 00:07:13;;;;;;;12.77;3.80;;;9.80;50.30;;;;;;21087358;28;20231;-71
2022/04/20 00:17:15;;;;;;;4.97;3.67;;;9.70;50.60;;;;;;21085666;28;20236;-71
2022/04/20 00:27:17;;;;;;;8.67;3.20;;;9.60;50.70;;;;;;21082604;28;20219;-69
2022/04/20 00:37:18;;;;;;;4.57;2.87;;;9.60;50.50;;;;;;21086182;28;20707;-71
2022/04/20 00:47:22;;;;;;;5.13;3.53;;;9.40;51.10;;;;;;21084714;28;20237;-65
2022/04/20 00:57:23;;;;;;;4.13;3.33;;;9.30;51.60;;;;;;21083026;28;20239;-64
2022/04/20 01:07:25;;;;;;;6.00;3.73;;;9.20;52.00;;;;;;21081819;28;20226;-62
2022/04/20 01:17:27;;;;;;;5.70;3.90;;;9.10;52.30;;;;;;21081696;28;20696;-63
2022/04/20 01:27:29;;;;;;;6.30;3.30;;;9.10;52.50;;;;;;21079841;28;20207;-62
2022/04/20 01:37:31;;;;;;;7.43;3.90;;;8.80;53.20;;;;;;21080079;28;20236;-62
2022/04/20 01:47:32;;;;;;;6.03;3.33;;;8.70;53.50;;;;;;21079654;28;20693;-62
2022/04/20 01:57:34;;;;;;;4.50;3.30;;;8.50;53.80;;;;;;21078869;28;20672;-62
2022/04/20 02:07:36;;;;;;;4.10;3.27;;;8.30;54.40;;;;;;21078326;28;20255;-64
2022/04/20 02:17:39;;;;;;;6.53;3.70;;;8.20;55.10;;;;;;21077375;28;20238;-69
2022/04/20 02:27:41;;;;;;;4.67;3.40;;;8.00;55.30;;;;;;21157436;28;20606;-62
2022/04/20 02:37:42;;;;;;;5.27;3.40;;;7.90;55.20;;;;;;21164108;28;20635;-64
2022/04/20 02:47:44;;;;;;;8.70;3.77;;;7.70;55.40;;;;;;21177892;28;20226;-68
2022/04/20 02:57:46;;;;;;;5.53;3.80;;;7.50;56.40;;;;;;21176955;28;20288;-65
2022/04/20 03:07:47;;;;;;;6.07;3.80;;;7.50;56.60;;;;;;21176212;28;20215;-63
2022/04/20 03:17:49;;;;;;;6.20;3.70;;;7.40;56.60;;;;;;21175913;28;20229;-64
2022/04/20 03:27:51;;;;;;;8.57;3.50;;;7.30;57.20;;;;;;21156701;28;20657;-63
2022/04/20 03:37:53;;;;;;;3.93;3.07;;;7.10;57.60;;;;;;21173936;28;20233;-64
2022/04/20 03:47:54;;;;;;;4.73;3.80;;;7.10;57.50;;;;;;21172786;28;20225;-63
2022/04/20 03:57:56;;;;;;;7.20;3.63;;;7.00;58.30;;;;;;21171799;28;20712;-65
2022/04/20 04:07:58;;;;;;;6.93;3.80;;;6.90;58.00;;;;;;21171587;28;20209;-62
2022/04/20 04:18:01;;;;;;;6.00;3.63;;;6.80;58.60;;;;;;21153032;28;20604;-65
2022/04/20 04:28:03;;;;;;;6.00;3.70;;;6.70;58.50;;;;;;21163334;28;20608;-62
2022/04/20 04:38:05;;;;;;;8.80;4.23;;;6.50;59.30;;;;;;21166987;28;20230;-62
2022/04/20 04:58:27;;;;;;;7.37;4.60;;;6.60;59.60;;;;;;21167408;28;20256;-63
2022/04/20 05:08:29;;;;;;;9.00;4.00;;;6.70;59.60;;;;;;21167836;28;20210;-63
2022/04/20 05:18:30;;;;;;;6.53;4.60;;;6.80;60.10;;;;;;21165766;28;20723;-64
2022/04/20 05:28:32;;;;;;;17.37;4.90;;;6.80;60.10;;;;;;21164501;28;20669;-63
2022/04/20 05:48:54;;;;;;;14.33;5.17;;;7.20;61.10;;;;;;21166740;28;20325;-64
2022/04/20 05:58:56;;;;;;;17.93;6.17;;;7.40;61.00;;;;;;21162521;28;20234;-66
2022/04/20 06:08:57;;;;;;;14.93;4.90;;;7.80;60.30;;;;;;21161184;28;20202;-63
2022/04/20 06:18:59;;;;;;;10.27;4.40;;;7.90;60.40;;;;;;21160400;28;20240;-62
2022/04/20 06:29:01;;;;;;;11.30;4.73;;;8.30;58.70;;;;;;21071016;28;20620;-62
2022/04/20 06:39:03;;;;;;;22.50;4.97;;;8.80;58.00;;;;;;21075980;28;20232;-64
2022/04/20 06:49:06;;;;;;;12.33;4.10;;;9.40;57.20;;;;;;21075475;28;20233;-64
2022/04/20 06:59:08;;;;;;;10.27;4.90;;;9.60;56.80;;;;;;21076111;28;20239;-62
2022/04/20 07:09:09;;;;;;;9.00;4.10;;;10.20;54.90;;;;;;21074948;28;20211;-64
2022/04/20 07:19:11;;;;;;;6.47;4.00;;;10.30;55.10;;;;;;21074903;28;20677;-63
2022/04/20 07:29:12;;;;;;;9.43;4.27;;;11.00;53.30;;;;;;21083362;28;20199;-62
2022/04/20 07:39:14;;;;;;;6.17;4.17;;;11.00;53.70;;;;;;21088224;28;20721;-64
2022/04/20 07:59:36;;;;;;;6.27;4.03;;;11.50;51.50;;;;;;21086910;28;20235;-62
2022/04/20 08:09:38;;;;;;;5.60;3.83;;;12.00;49.70;;;;;;21085399;28;20232;-64
2022/04/20 08:19:40;;;;;;;7.93;4.20;;;12.10;49.60;;;;;;21085084;28;20246;-63
2022/04/20 08:29:44;;;;;;;7.73;3.93;;;12.40;47.70;;;;;;21161878;28;20209;-65
2022/04/20 08:39:46;;;;;;;6.07;4.17;;;12.50;47.90;;;;;;21166701;28;20271;-63
2022/04/20 08:49:49;;;;;;;5.67;4.07;;;12.90;45.10;;;;;;21166557;28;20591;-63
2022/04/20 08:59:52;;;;;;;5.80;4.30;;;13.00;44.20;;;;;;21166758;28;20671;-67
2022/04/20 09:09:53;;;;;;;6.23;4.33;;;13.00;43.90;;;;;;21165026;28;20206;-64
2022/04/20 09:19:56;;;;;;;6.40;3.90;;;13.10;41.70;;;;;;21164616;28;20231;-64
2022/04/20 09:29:59;;;;;;;5.07;4.03;;;13.30;41.90;;;;;;21163072;28;20293;-63
2022/04/20 09:40:01;;;;;;;6.07;4.47;;;13.40;42.50;;;;;;21162360;28;20239;-62
2022/04/20 09:50:04;;;;;;;7.87;4.57;;;13.70;40.00;;;;;;21161440;28;20244;-62
2022/04/20 10:00:10;;;;;;;5.70;4.40;;;13.70;40.50;;;;;;21161607;28;20237;-64
2022/04/20 10:10:21;;;;;;;6.30;4.43;;;13.80;39.20;;;;;;21161696;28;20205;-65
2022/04/20 10:20:25;;;;;;;7.40;4.33;;;14.00;39.10;;;;;;21161226;28;20246;-62
2022/04/20 10:30:40;;;;;;;6.77;4.23;;;14.10;38.70;;;;;;21074755;28;20202;-66
2022/04/20 10:40:56;;;;;;;5.60;4.17;;;14.10;38.20;;;;;;21077470;28;20722;-63
2022/04/20 10:51:14;;;;;;;8.87;3.87;;;14.30;37.80;;;;;;21093580;28;20313;-65
2022/04/20 11:01:16;;;;;;;4.70;3.70;;;14.30;38.20;;;;;;21084711;28;20784;-66
2022/04/20 11:21:53;;;;;;;6.17;4.10;;;14.60;36.20;;;;;;21089143;28;20234;-69
2022/04/20 11:31:58;;;;;;;7.60;3.20;;;14.70;35.80;;;;;;21089578;28;20206;-67
2022/04/20 11:42:05;;;;;;;5.83;3.27;;;14.80;35.10;;;;;;21089002;28;20741;-65
2022/04/20 11:52:09;;;;;;;4.50;3.60;;;15.00;34.00;;;;;;21087632;28;20313;-70
2022/04/20 12:02:15;;;;;;;5.23;3.30;;;15.20;33.70;;;;;;21086433;28;20210;-66
2022/04/20 12:12:19;;;;;;;4.10;3.10;;;15.60;32.20;;;;;;21098218;28;20290;-70
2022/04/20 12:22:21;;;;;;;8.53;2.83;;;15.90;32.30;;;;;;21108682;28;20269;-67
2022/04/20 12:32:32;;;;;;;3.67;2.80;;;16.40;30.80;;;;;;21077408;28;20270;-67
2022/04/20 12:42:33;;;;;;;3.80;3.20;;;16.50;31.00;;;;;;21086025;28;20212;-72
2022/04/20 12:52:35;;;;;;;6.00;3.20;;;16.80;30.00;;;;;;21083224;28;20236;-63
2022/04/20 13:02:56;;;;;;;5.63;3.00;;;16.90;30.00;;;;;;21082743;28;20207;-73
2022/04/20 13:12:59;;;;;;;3.97;2.80;;;17.10;30.40;;;;;;21080895;28;20292;-68
2022/04/20 13:23:00;;;;;;;6.30;3.10;;;17.30;30.40;;;;;;21090955;28;20253;-70
2022/04/20 13:33:04;;;;;;;12.30;3.00;;;17.60;32.10;;;;;;21157762;28;20284;-66
2022/04/20 13:43:07;;;;;;;3.27;2.57;;;17.80;34.80;;;;;;21104602;28;20199;-66
2022/04/20 13:53:08;;;;;;;3.23;2.47;;;19.10;35.30;;;;;;21081471;28;20243;-64
2022/04/20 14:03:10;;;;;;;8.77;2.33;;;21.00;34.70;;;;;;21097419;28;20590;-69
2022/04/20 14:13:12;;;;;;;3.55;2.30;;;26.30;30.00;;;;;;21085185;28;20685;-70
2022/04/20 14:23:14;;;;;;;3.17;2.20;;;30.40;27.30;;;;;;21144412;28;20210;-66
2022/04/20 14:33:16;;;;;;;4.68;2.55;;;32.20;25.30;;;;;;21186140;27;20298;-63
2022/04/20 14:43:19;;;;;;;3.45;2.25;;;31.40;25.20;;;;;;21263246;27;20205;-69
2022/04/20 14:53:21;;;;;;;4.03;2.38;;;30.60;25.20;;;;;;21262080;27;20324;-67
2022/04/20 15:03:23;;;;;;;4.25;2.40;;;30.50;25.70;;;;;;21262042;27;20284;-68
2022/04/20 15:13:26;;;;;;;5.47;2.13;;;28.10;26.30;;;;;;21261917;27;20253;-63
2022/04/20 15:23:34;;;;;;;3.83;2.33;;;25.20;28.20;;;;;;21260676;27;20250;-63
2022/04/20 15:33:36;;;;;;;2.63;2.00;;;24.40;29.20;;;;;;21260132;27;20279;-64
2022/04/20 15:43:39;;;;;;;3.87;2.10;;;24.40;29.60;;;;;;21259313;27;20297;-62
2022/04/20 15:53:41;;;;;;;5.53;2.00;;;26.20;28.70;;;;;;21185113;27;20242;-64
2022/04/20 16:03:42;;;;;;;2.97;2.20;;;23.00;30.10;;;;;;21168457;28;20202;-65
2022/04/20 16:13:44;;;;;;;3.70;2.20;;;21.30;32.10;;;;;;21220228;27;20769;-62
2022/04/20 16:23:46;;;;;;;4.67;2.43;;;20.70;32.70;;;;;;21265578;27;20214;-67
2022/04/20 16:33:48;;;;;;;5.67;2.30;;;19.40;34.30;;;;;;21239811;27;20227;-65
2022/04/20 16:43:50;;;;;;;6.80;2.40;;;19.40;34.90;;;;;;21255467;27;20209;-64
2022/04/20 16:53:52;;;;;;;6.83;2.43;;;20.90;33.70;;;;;;21168029;27;20249;-66
2022/04/20 17:03:54;;;;;;;4.77;2.17;;;20.90;34.20;;;;;;21166956;28;20212;-67
2022/04/20 17:13:57;;;;;;;9.37;2.93;;;19.50;35.30;;;;;;21101893;28;20537;-67
2022/04/20 17:34:19;;;;;;;14.23;3.07;;;17.70;37.70;;;;;;21206870;27;20240;-68
2022/04/20 17:44:23;;;;;;;6.53;2.90;;;17.40;39.90;;;;;;21249873;27;20212;-65
2022/04/20 17:54:26;;;;;;;7.03;2.60;;;16.90;41.00;;;;;;21248982;27;20250;-68
2022/04/20 18:04:28;;;;;;;7.00;3.00;;;16.50;42.00;;;;;;21248828;27;20258;-65
2022/04/20 18:14:30;;;;;;;4.23;2.77;;;16.10;43.20;;;;;;21247012;27;20231;-70
2022/04/20 18:24:32;;;;;;;6.73;3.10;;;15.60;43.80;;;;;;21245185;28;20205;-69
2022/04/20 18:34:36;;;;;;;5.83;2.83;;;15.30;44.50;;;;;;21248409;28;20618;-68
2022/04/20 18:44:45;;;;;;;10.00;3.47;;;15.20;45.00;;;;;;21247365;28;20204;-68
2022/04/20 19:05:07;;;;;;;5.10;3.10;;;14.70;46.20;;;;;;21246360;28;20207;-69
2022/04/20 19:15:11;;;;;;;9.07;3.40;;;14.60;46.80;;;;;;21243246;28;20243;-68
2022/04/20 19:25:13;;;;;;;5.80;3.87;;;14.40;47.10;;;;;;21252736;27;20220;-69
2022/04/20 19:35:15;;;;;;;5.07;3.80;;;14.30;47.80;;;;;;21179199;27;20229;-66
2022/04/20 19:45:16;;;;;;;6.30;3.73;;;14.30;48.40;;;;;;21171613;28;20674;-66
2022/04/20 19:55:18;;;;;;;7.17;4.40;;;14.10;48.90;;;;;;21169914;28;20253;-67
2022/04/20 20:05:40;;;;;;;4.93;3.93;;;14.00;49.80;;;;;;21168830;28;20209;-68
2022/04/20 20:15:42;;;;;;;4.90;4.03;;;13.90;49.90;;;;;;21168668;28;20341;-66
2022/04/20 20:36:04;;;;;;;6.90;4.10;;;13.80;50.80;;;;;;21166380;28;20249;-68
2022/04/20 20:46:06;;;;;;;5.90;4.00;;;13.80;51.20;;;;;;21166493;28;20562;-68
2022/04/20 20:56:08;;;;;;;5.13;4.60;;;13.70;51.10;;;;;;21165746;28;20247;-67
2022/04/20 21:06:10;;;;;;;8.10;5.30;;;13.50;51.40;;;;;;21167389;28;20205;-66
2022/04/20 21:16:12;;;;;;;11.20;5.10;;;13.30;51.50;;;;;;21167529;28;20335;-65
2022/04/20 21:26:14;;;;;;;7.00;5.50;;;13.20;51.70;;;;;;21164727;28;20210;-66
2022/04/20 21:36:16;;;;;;;12.80;5.67;;;13.10;51.90;;;;;;21087056;28;20278;-65
2022/04/20 21:46:18;;;;;;;11.80;5.40;;;13.00;52.50;;;;;;21079027;28;20251;-66
2022/04/20 21:56:20;;;;;;;6.43;5.37;;;12.90;52.80;;;;;;21079025;28;20285;-66
2022/04/20 22:16:49;;;;;;;6.43;5.33;;;12.70;53.10;;;;;;21091964;28;20234;-66
2022/04/20 22:26:54;;;;;;;7.37;5.60;;;12.70;53.60;;;;;;21158740;28;20213;-67
2022/04/20 22:36:55;;;;;;;8.73;5.40;;;12.60;53.90;;;;;;21161469;28;20263;-66
2022/04/20 22:46:57;;;;;;;7.67;6.50;;;12.50;54.10;;;;;;21161177;28;20632;-64
2022/04/20 22:56:59;;;;;;;8.37;6.40;;;12.40;54.50;;;;;;21166866;28;20237;-67
2022/04/20 23:07:01;;;;;;;7.00;6.27;;;12.30;54.80;;;;;;21192724;28;20285;-66
2022/04/20 23:17:03;;;;;;;7.50;6.50;;;12.20;55.10;;;;;;21180329;28;20601;-68
2022/04/20 23:37:25;;;;;;;8.90;6.40;;;12.00;55.20;;;;;;21174463;28;20623;-65
2022/04/20 23:47:27;;;;;;;9.83;6.67;;;11.90;55.70;;;;;;21173327;28;20226;-67
2022/04/20 23:57:28;;;;;;;8.00;6.63;;;11.90;56.20;;;;;;21173259;28;20255;-66
